Time;durP1;ratioP1;P1;durP2;ratioP2;P2;SDS_P1;SDS_P2;PMS_P1;PMS_P2;Temp;Humidity;BMP_temperature;BMP_pressure;BME280_temperature;BME280_humidity;BME280_pressure;Samples;Min_cycle;Max_cycle;Signal;HPM_P1;HPM_P2
2021/06/23 00:00:07;;;;;;;12.45;3.70;;;;;;;23.46;62.08;100446.39;1759847;80;21046;-57
2021/06/23 00:02:35;;;;;;;17.12;4.40;;;;;;;23.36;62.47;100436.06;1735891;80;21731;-57
2021/06/23 00:05:01;;;;;;;12.75;4.05;;;;;;;23.28;62.91;100440.28;1721532;82;21154;-57
2021/06/23 00:07:29;;;;;;;9.08;3.55;;;;;;;23.24;63.39;100447.63;1710058;82;21462;-57
2021/06/23 00:09:56;;;;;;;13.38;4.33;;;;;;;23.25;63.49;100440.72;1696808;83;21068;-57
2021/06/23 00:12:22;;;;;;;9.80;4.45;;;;;;;23.23;63.48;100440.08;1738085;80;21600;-57
2021/06/23 00:14:49;;;;;;;10.00;4.90;;;;;;;23.16;63.69;100446.77;1757196;80;21055;-57
2021/06/23 00:17:16;;;;;;;11.38;4.10;;;;;;;23.11;63.86;100453.27;1720300;82;21106;-57
2021/06/23 00:19:43;;;;;;;14.60;4.25;;;;;;;23.09;64.03;100458.55;1702421;82;21094;-57
2021/06/23 00:22:09;;;;;;;16.85;5.05;;;;;;;23.06;64.24;100450.87;1756599;80;21106;-57
2021/06/23 00:24:36;;;;;;;13.38;4.30;;;;;;;23.08;64.37;100452.86;1755801;80;21537;-57
2021/06/23 00:27:05;;;;;;;11.15;3.50;;;;;;;23.11;64.42;100451.92;1759020;79;20995;-57
2021/06/23 00:29:31;;;;;;;12.75;3.72;;;;;;;23.13;64.40;100453.92;1758269;79;21128;-57
2021/06/23 00:31:59;;;;;;;9.83;3.92;;;;;;;23.14;64.48;100448.84;1757431;80;21035;-63
2021/06/23 00:34:27;;;;;;;17.02;4.65;;;;;;;23.13;64.76;100444.53;1759259;79;21130;-63
2021/06/23 00:36:53;;;;;;;12.78;5.03;;;;;;;23.11;64.68;100442.53;1758538;80;21051;-63
2021/06/23 00:39:20;;;;;;;11.60;4.97;;;;;;;23.09;64.77;100438.42;1759861;79;21080;-64
2021/06/23 00:41:47;;;;;;;14.55;4.35;;;;;;;23.06;65.07;100440.98;1737227;80;21129;-63
2021/06/23 00:44:14;;;;;;;12.37;4.78;;;;;;;23.07;65.28;100449.36;1762411;80;21058;-63
2021/06/23 00:46:43;;;;;;;12.88;4.50;;;;;;;23.11;64.92;100447.91;1762844;80;21042;-63
2021/06/23 00:49:10;;;;;;;12.40;4.42;;;;;;;23.10;64.93;100442.24;1736574;80;21515;-63
2021/06/23 00:51:46;;;;;;;13.32;5.05;;;;;;;23.07;65.11;100441.83;1759941;80;21051;-63
2021/06/23 00:54:17;;;;;;;11.33;4.28;;;;;;;23.01;65.22;100446.10;1761514;80;21213;-64
2021/06/23 00:56:44;;;;;;;8.00;4.40;;;;;;;22.96;65.12;100443.20;1763573;79;21102;-63
2021/06/23 00:59:10;;;;;;;7.65;4.28;;;;;;;22.97;64.46;100442.19;1763847;80;21137;-61
2021/06/23 01:01:40;;;;;;;14.20;4.55;;;;;;;23.02;63.92;100449.63;1740132;80;21066;-63
2021/06/23 01:04:06;;;;;;;11.33;4.45;;;;;;;23.01;63.73;100447.44;1763534;79;21086;-63
2021/06/23 01:06:35;;;;;;;8.78;4.08;;;;;;;22.99;63.55;100445.48;1706035;81;21087;-63
2021/06/23 01:09:02;;;;;;;8.73;3.92;;;;;;;22.95;63.60;100444.25;1762459;80;22186;-63
2021/06/23 01:11:31;;;;;;;6.05;3.35;;;;;;;22.90;63.40;100449.40;1762081;80;22205;-63
2021/06/23 01:14:03;;;;;;;6.92;3.70;;;;;;;22.87;63.00;100449.80;1762208;79;21129;-64
2021/06/23 01:16:38;;;;;;;7.78;3.33;;;;;;;22.85;62.50;100447.81;1762176;79;21087;-62
2021/06/23 01:19:10;;;;;;;9.40;3.67;;;;;;;22.81;62.23;100443.36;1747023;80;21114;-63
2021/06/23 01:21:44;;;;;;;8.70;3.70;;;;;;;22.81;62.04;100443.36;1745532;80;21113;-62
2021/06/23 01:24:11;;;;;;;7.40;3.37;;;;;;;22.82;61.58;100440.48;1763962;80;21098;-62
2021/06/23 01:26:37;;;;;;;9.28;3.62;;;;;;;22.80;61.43;100440.39;1764394;79;21055;-62
2021/06/23 01:29:04;;;;;;;9.98;4.03;;;;;;;22.77;61.62;100438.92;1763902;80;21063;-62
2021/06/23 01:31:34;;;;;;;8.28;3.77;;;;;;;22.71;61.51;100441.09;1760537;79;21128;-62
2021/06/23 01:34:00;;;;;;;7.62;3.50;;;;;;;22.67;61.48;100441.16;1764033;80;22623;-63
2021/06/23 01:36:28;;;;;;;8.25;3.90;;;;;;;22.63;61.45;100443.42;1761363;80;21058;-63
2021/06/23 01:38:55;;;;;;;8.20;3.00;;;;;;;22.59;61.60;100444.86;1761189;80;21596;-63
2021/06/23 01:41:22;;;;;;;10.13;3.40;;;;;;;22.60;61.65;100451.05;1753962;80;21106;-63
2021/06/23 01:43:49;;;;;;;12.33;3.52;;;;;;;22.65;61.81;100444.56;1721741;80;22017;-63
2021/06/23 01:46:18;;;;;;;7.12;3.50;;;;;;;22.68;61.84;100445.51;1751515;81;21107;-63
2021/06/23 01:48:45;;;;;;;12.15;4.33;;;;;;;22.68;61.73;100448.69;1752466;81;21110;-62
2021/06/23 01:51:13;;;;;;;9.40;4.22;;;;;;;22.65;61.65;100443.22;1726892;81;21564;-62
2021/06/23 01:53:41;;;;;;;8.25;4.17;;;;;;;22.63;61.71;100447.45;1703663;83;21098;-63
2021/06/23 01:56:07;;;;;;;12.25;4.10;;;;;;;22.61;61.98;100445.48;1727525;81;22165;-62
2021/06/23 01:58:42;;;;;;;7.20;3.67;;;;;;;22.65;62.10;100437.86;1751597;80;21130;-63
2021/06/23 02:01:59;;;;;;;9.30;4.00;;;;;;;22.71;62.06;100436.22;1754594;80;21071;-63
2021/06/23 02:04:53;;;;;;;10.10;3.62;;;;;;;22.72;62.13;100441.39;1750893;81;21134;-63
2021/06/23 02:07:59;;;;;;;8.07;3.87;;;;;;;22.71;62.20;100434.39;1722053;81;22004;-63
2021/06/23 02:10:57;;;;;;;9.95;3.87;;;;;;;22.71;62.23;100434.88;1751066;81;21804;-62
2021/06/23 02:13:36;;;;;;;;;;;;;;;22.67;62.24;100434.45;1753029;81;22526;-63
2021/06/23 02:16:11;;;;;;;11.45;4.20;;;;;;;22.63;62.13;100428.67;1703451;83;20147;-62
2021/06/23 02:18:40;;;;;;;12.55;4.30;;;;;;;22.61;62.14;100424.03;1751441;81;21150;-63
2021/06/23 02:21:14;;;;;;;12.10;4.05;;;;;;;22.64;61.99;100421.45;1721895;81;21632;-62
2021/06/23 02:23:44;;;;;;;12.45;4.25;;;;;;;22.63;62.19;100430.53;1750259;80;21135;-62
2021/06/23 02:26:12;;;;;;;8.65;3.37;;;;;;;22.60;61.97;100426.39;1722664;79;21094;-58
2021/06/23 02:28:38;;;;;;;10.80;4.17;;;;;;;22.57;61.79;100436.17;1752584;81;21082;-59
2021/06/23 02:31:06;;;;;;;10.40;4.60;;;;;;;22.54;61.63;100440.59;1752638;81;21075;-61
2021/06/23 02:33:36;;;;;;;8.35;4.08;;;;;;;22.50;61.25;100434.51;1721189;81;21038;-61
2021/06/23 02:36:04;;;;;;;8.38;3.47;;;;;;;22.52;61.24;100441.31;1753090;80;21080;-62
2021/06/23 02:38:32;;;;;;;9.88;3.45;;;;;;;22.58;60.83;100431.66;1696004;81;21114;-62
2021/06/23 02:41:00;;;;;;;11.70;4.22;;;;;;;22.62;60.54;100440.41;1735528;80;21074;-62
2021/06/23 02:43:26;;;;;;;13.03;4.08;;;;;;;22.64;60.15;100433.52;1766247;78;21113;-62
2021/06/23 02:45:57;;;;;;;9.38;3.77;;;;;;;22.66;60.13;100444.05;1767843;80;21493;-61
2021/06/23 02:48:25;;;;;;;7.85;4.42;;;;;;;22.66;59.99;100442.18;1766766;79;21130;-61
2021/06/23 02:51:21;;;;;;;11.43;4.42;;;;;;;22.68;59.97;100445.51;1735712;79;21094;-61
2021/06/23 02:53:52;;;;;;;10.25;4.47;;;;;;;22.67;60.19;100441.16;1768883;80;21094;-62
2021/06/23 02:56:20;;;;;;;7.33;4.08;;;;;;;22.69;60.34;100436.42;1767948;79;21149;-62
2021/06/23 02:58:50;;;;;;;10.18;4.03;;;;;;;22.75;60.44;100441.52;1767625;79;21081;-62
2021/06/23 03:01:17;;;;;;;11.35;3.83;;;;;;;22.74;60.62;100446.02;1769753;79;21906;-63
2021/06/23 03:03:48;;;;;;;7.33;4.15;;;;;;;22.75;60.78;100453.05;1744982;80;21569;-63
2021/06/23 03:06:17;;;;;;;7.45;3.50;;;;;;;22.75;60.96;100460.28;1766737;80;21219;-63
2021/06/23 03:08:46;;;;;;;9.68;3.80;;;;;;;22.77;60.86;100461.72;1769057;80;21525;-66
2021/06/23 03:11:14;;;;;;;7.90;3.98;;;;;;;22.80;60.56;100469.38;1738684;80;21070;-63
2021/06/23 03:13:44;;;;;;;7.83;4.15;;;;;;;22.82;60.21;100467.83;1765827;80;21049;-61
2021/06/23 03:16:15;;;;;;;7.90;3.15;;;;;;;22.88;60.24;100472.89;1759317;79;21817;-64
2021/06/23 03:18:42;;;;;;;9.50;3.55;;;;;;;22.97;60.24;100467.67;1730997;82;22594;-64
2021/06/23 03:21:10;;;;;;;7.62;3.47;;;;;;;23.01;60.16;100472.94;1768213;80;21120;-65
2021/06/23 03:23:38;;;;;;;7.47;3.45;;;;;;;23.02;60.15;100461.19;1769808;79;21132;-63
2021/06/23 03:26:07;;;;;;;6.30;3.55;;;;;;;23.05;60.00;100459.94;1769382;78;21090;-69
2021/06/23 03:28:34;;;;;;;10.03;3.62;;;;;;;23.06;59.18;100457.08;1739840;79;21094;-66
2021/06/23 03:31:02;;;;;;;6.97;3.50;;;;;;;23.07;58.74;100445.86;1766369;79;21117;-67
2021/06/23 03:33:31;;;;;;;11.85;3.52;;;;;;;23.08;58.48;100444.80;1769349;80;22211;-61
2021/06/23 03:36:14;;;;;;;8.95;3.67;;;;;;;23.10;58.61;100438.71;1766089;79;21430;-64
2021/06/23 03:38:44;;;;;;;5.90;3.33;;;;;;;23.11;58.89;100433.14;1765602;79;21098;-64
2021/06/23 03:41:11;;;;;;;8.23;3.50;;;;;;;23.18;59.17;100436.69;1764351;80;21011;-63
2021/06/23 03:43:38;;;;;;;8.85;4.15;;;;;;;23.27;59.16;100439.99;1759255;80;21149;-65
2021/06/23 03:46:04;;;;;;;8.28;4.20;;;;;;;23.31;59.01;100443.91;1756780;80;21564;-63
2021/06/23 03:48:32;;;;;;;9.88;4.10;;;;;;;23.35;58.45;100441.63;1758407;80;21058;-66
2021/06/23 03:51:01;;;;;;;14.33;4.12;;;;;;;23.37;57.77;100447.13;1755511;80;21109;-62
2021/06/23 03:53:27;;;;;;;7.47;3.62;;;;;;;23.40;57.57;100444.53;1719727;82;21368;-68
2021/06/23 03:55:54;;;;;;;11.33;4.35;;;;;;;23.41;57.59;100442.69;1759438;80;21110;-70
2021/06/23 03:58:21;;;;;;;6.83;3.72;;;;;;;23.42;57.60;100437.12;1759117;80;21071;-65
2021/06/23 04:00:49;;;;;;;7.85;3.42;;;;;;;23.45;57.55;100438.55;1695804;83;21109;-69
2021/06/23 04:03:18;;;;;;;9.53;3.70;;;;;;;23.49;57.43;100439.80;1758164;80;21082;-67
2021/06/23 04:06:04;;;;;;;11.95;4.42;;;;;;;23.55;57.59;100437.12;1757033;79;21541;-67
2021/06/23 04:08:31;;;;;;;13.13;5.25;;;;;;;23.68;57.63;100434.92;1756747;79;21059;-67
2021/06/23 04:10:58;;;;;;;8.70;4.12;;;;;;;23.78;57.89;100437.19;1756226;80;21063;-67
2021/06/23 04:13:25;;;;;;;12.85;4.60;;;;;;;23.85;57.66;100438.03;1737261;80;21076;-69
2021/06/23 04:15:52;;;;;;;14.40;3.75;;;;;;;23.91;57.48;100436.39;1756408;80;21086;-68
2021/06/23 04:18:19;;;;;;;6.75;4.50;;;;;;;23.96;56.92;100431.73;1757582;79;21114;-65
2021/06/23 04:20:47;;;;;;;7.47;3.72;;;;;;;24.00;57.06;100428.39;1756333;80;21082;-64
2021/06/23 04:23:16;;;;;;;10.48;4.15;;;;;;;24.04;57.35;100420.73;1736411;80;21145;-68
2021/06/23 04:25:44;;;;;;;10.95;4.35;;;;;;;24.08;57.38;100417.42;1759289;80;21058;-69
2021/06/23 04:28:11;;;;;;;9.38;4.45;;;;;;;24.17;57.27;100426.59;1756451;80;21134;-66
2021/06/23 04:30:39;;;;;;;9.78;4.35;;;;;;;24.24;56.73;100430.93;1735803;80;22769;-67
2021/06/23 04:33:06;;;;;;;9.78;4.42;;;;;;;24.38;56.13;100433.05;1706682;80;21070;-67
2021/06/23 04:35:41;;;;;;;10.05;3.92;;;;;;;24.46;55.67;100430.62;1757609;80;21609;-65
2021/06/23 04:38:08;;;;;;;11.55;4.25;;;;;;;24.53;55.49;100438.16;1757782;79;21134;-65
2021/06/23 04:40:36;;;;;;;9.08;3.72;;;;;;;24.59;55.47;100454.80;1761068;80;21043;-64
2021/06/23 04:43:03;;;;;;;9.90;4.17;;;;;;;24.66;55.60;100463.69;1758818;80;21102;-65
2021/06/23 04:45:30;;;;;;;10.85;4.08;;;;;;;24.76;55.37;100471.81;1755394;80;21573;-63
2021/06/23 04:47:59;;;;;;;15.50;4.05;;;;;;;24.80;55.70;100446.14;1756672;80;21106;-63
2021/06/23 04:50:26;;;;;;;6.83;3.77;;;;;;;24.80;55.44;100431.34;1734491;80;21611;-59
2021/06/23 04:52:54;;;;;;;8.08;3.80;;;;;;;24.79;55.50;100440.44;1748559;80;21106;-58
2021/06/23 05:07:04;;;;;;;8.25;3.85;;;;;;;26.40;51.88;100440.76;1861764;74;22733;-59
2021/06/23 05:09:31;;;;;;;13.60;4.60;;;;;;;26.45;51.76;100445.48;1840620;75;21104;-58
2021/06/23 05:11:58;;;;;;;7.25;4.20;;;;;;;26.33;51.56;100444.07;1836120;76;21085;-59
2021/06/23 05:14:24;;;;;;;12.93;4.53;;;;;;;26.19;52.05;100443.38;1815080;77;21088;-60
2021/06/23 05:16:51;;;;;;;13.38;4.47;;;;;;;26.11;52.29;100442.35;1835678;76;22558;-61
2021/06/23 05:19:18;;;;;;;9.78;3.55;;;;;;;26.07;52.60;100437.09;1834314;76;21560;-60
2021/06/23 05:21:45;;;;;;;9.43;4.85;;;;;;;26.05;52.98;100432.45;1833567;75;21072;-60
2021/06/23 05:24:12;;;;;;;13.35;4.45;;;;;;;26.04;53.38;100422.70;1836101;76;21140;-59
2021/06/23 05:26:38;;;;;;;8.18;4.10;;;;;;;26.02;53.14;100418.88;1833530;76;21517;-61
2021/06/23 05:29:05;;;;;;;9.13;4.83;;;;;;;26.02;53.28;100418.88;1836891;75;21402;-59
2021/06/23 05:31:32;;;;;;;7.75;3.70;;;;;;;26.01;53.62;100420.45;1836770;77;21089;-59
2021/06/23 05:34:00;;;;;;;13.03;4.37;;;;;;;26.01;53.86;100415.06;1836788;76;21387;-60
2021/06/23 05:36:26;;;;;;;10.18;4.62;;;;;;;26.00;53.83;100411.55;1835341;76;21335;-59
2021/06/23 05:38:53;;;;;;;11.60;4.80;;;;;;;26.01;53.42;100402.42;1835356;77;21096;-58
2021/06/23 05:41:21;;;;;;;7.80;4.10;;;;;;;26.03;53.47;100408.94;1839146;75;21077;-59
2021/06/23 05:43:48;;;;;;;7.40;4.15;;;;;;;26.05;53.56;100421.13;1835324;76;21092;-59
2021/06/23 05:46:15;;;;;;;7.70;3.92;;;;;;;26.05;53.50;100411.70;1826642;76;21089;-60
2021/06/23 05:48:41;;;;;;;8.50;4.50;;;;;;;26.07;53.78;100424.42;1837263;75;21955;-60
2021/06/23 05:51:08;;;;;;;10.45;4.75;;;;;;;26.11;54.00;100426.17;1835342;76;21096;-59
2021/06/23 05:53:36;;;;;;;10.78;4.60;;;;;;;26.16;54.47;100426.32;1803974;76;21099;-61
2021/06/23 05:56:05;;;;;;;8.38;4.25;;;;;;;26.20;53.95;100416.72;1776027;78;22644;-59
2021/06/23 05:58:32;;;;;;;12.13;4.40;;;;;;;26.24;54.06;100409.84;1797925;77;21600;-60
2021/06/23 06:01:01;;;;;;;6.47;3.65;;;;;;;26.33;54.02;100410.35;1799139;77;21247;-61
2021/06/23 06:03:27;;;;;;;11.40;4.47;;;;;;;26.41;54.06;100408.70;1796735;78;22579;-61
2021/06/23 06:05:54;;;;;;;7.12;4.08;;;;;;;26.51;53.81;100400.88;1799607;78;21105;-61
2021/06/23 06:08:20;;;;;;;8.70;3.58;;;;;;;26.61;53.74;100403.04;1771081;79;21079;-62
2021/06/23 06:10:48;;;;;;;11.22;3.33;;;;;;;26.72;52.60;100394.71;1787391;78;21096;-58
2021/06/23 06:13:15;;;;;;;7.03;3.27;;;;;;;26.82;51.07;100397.67;1805533;77;21122;-59
2021/06/23 06:15:41;;;;;;;7.42;3.02;;;;;;;26.89;50.07;100396.23;1754894;78;21144;-60
2021/06/23 06:18:08;;;;;;;7.92;3.60;;;;;;;26.94;50.33;100399.59;1779433;79;22052;-60
2021/06/23 06:20:34;;;;;;;6.45;3.25;;;;;;;26.97;50.33;100402.65;1801611;77;21473;-62
2021/06/23 06:23:01;;;;;;;7.55;3.80;;;;;;;27.04;49.70;100395.27;1759036;78;20991;-62
2021/06/23 06:25:30;;;;;;;11.83;3.90;;;;;;;27.09;49.61;100391.88;1786500;78;20986;-61
2021/06/23 06:27:56;;;;;;;7.87;3.27;;;;;;;27.12;50.29;100391.41;1772337;80;20915;-60
2021/06/23 06:30:24;;;;;;;10.10;3.72;;;;;;;27.17;49.22;100383.97;1805471;77;21109;-60
2021/06/23 06:32:51;;;;;;;6.05;3.40;;;;;;;27.18;48.92;100379.66;1782752;78;21069;-60
2021/06/23 06:35:17;;;;;;;5.17;3.30;;;;;;;27.22;49.59;100378.16;1808281;77;21051;-61
2021/06/23 06:37:45;;;;;;;6.53;3.67;;;;;;;27.25;49.81;100379.55;1803834;78;21054;-59
2021/06/23 06:40:13;;;;;;;9.68;3.30;;;;;;;27.30;50.53;100381.59;1792318;78;21556;-62
2021/06/23 06:42:39;;;;;;;6.20;3.52;;;;;;;27.36;49.78;100386.06;1777339;79;21055;-61
2021/06/23 06:45:07;;;;;;;5.53;3.55;;;;;;;27.42;49.47;100390.55;1796090;78;21026;-62
2021/06/23 06:47:34;;;;;;;6.65;3.20;;;;;;;27.47;49.62;100398.77;1805225;77;21082;-62
2021/06/23 06:50:01;;;;;;;8.80;3.62;;;;;;;27.55;49.55;100394.88;1795689;78;21128;-62
2021/06/23 06:52:27;;;;;;;8.60;3.33;;;;;;;27.68;49.37;100405.98;1784528;78;21517;-60
2021/06/23 06:54:54;;;;;;;6.70;3.00;;;;;;;27.75;49.20;100405.33;1803448;77;21069;-60
2021/06/23 06:57:20;;;;;;;6.92;3.47;;;;;;;27.82;48.85;100402.50;1802038;78;21589;-56
2021/06/23 06:59:47;;;;;;;7.17;3.72;;;;;;;27.88;48.19;100399.67;1801080;78;21073;-61
2021/06/23 07:02:13;;;;;;;6.03;3.40;;;;;;;27.94;48.33;100396.58;1780171;78;21092;-61
2021/06/23 07:04:39;;;;;;;7.40;3.83;;;;;;;28.02;48.49;100392.16;1801673;77;21161;-61
2021/06/23 07:07:06;;;;;;;8.63;3.10;;;;;;;28.09;48.38;100379.84;1736069;79;21149;-59
2021/06/23 07:09:33;;;;;;;5.62;3.20;;;;;;;28.17;48.42;100384.89;1747129;79;21104;-61
2021/06/23 07:12:00;;;;;;;7.33;3.37;;;;;;;28.24;47.72;100384.21;1779719;78;21677;-59
2021/06/23 07:14:26;;;;;;;6.40;3.17;;;;;;;28.30;47.51;100379.74;1782882;78;21521;-59
2021/06/23 07:16:54;;;;;;;7.47;3.42;;;;;;;28.34;48.01;100374.97;1779668;78;21614;-60
2021/06/23 07:19:20;;;;;;;7.75;3.75;;;;;;;28.43;48.08;100390.80;1782987;78;21279;-59
2021/06/23 07:21:47;;;;;;;6.00;3.37;;;;;;;28.50;47.95;100398.27;1753947;80;21159;-60
2021/06/23 07:24:17;;;;;;;8.50;3.30;;;;;;;28.57;47.15;100388.67;1755382;80;21706;-59
2021/06/23 07:26:48;;;;;;;8.20;3.85;;;;;;;28.60;47.36;100392.26;1750725;80;22050;-60
2021/06/23 07:29:16;;;;;;;7.87;3.42;;;;;;;28.62;47.09;100390.13;1727106;80;21049;-59
2021/06/23 07:31:53;;;;;;;8.53;3.37;;;;;;;28.61;47.17;100392.53;1751569;79;21120;-60
2021/06/23 07:36:43;;;;;;;8.25;3.20;;;;;;;28.58;47.21;100386.23;1780456;78;21531;-60
2021/06/23 07:39:10;;;;;;;6.22;3.37;;;;;;;28.54;47.31;100381.81;1781842;78;21147;-59
2021/06/23 07:41:38;;;;;;;6.87;3.35;;;;;;;28.53;47.10;100381.00;1750558;80;21436;-59
2021/06/23 07:44:05;;;;;;;7.00;3.35;;;;;;;28.53;47.30;100378.30;1752854;80;21117;-60
2021/06/23 07:46:38;;;;;;;7.67;3.77;;;;;;;28.55;47.74;100372.64;1751059;80;21128;-59
2021/06/23 07:49:08;;;;;;;7.17;3.42;;;;;;;28.61;48.00;100375.74;1749550;80;21584;-60
2021/06/23 07:51:40;;;;;;;5.47;3.30;;;;;;;28.66;47.99;100371.77;1750796;80;21101;-59
2021/06/23 07:56:49;;;;;;;7.10;3.60;;;;;;;28.83;48.15;100381.82;1751359;80;21506;-59
2021/06/23 08:09:59;;;;;;;15.95;4.22;;;;;;;29.25;46.62;100385.01;1729671;78;21458;-58
2021/06/23 08:12:27;;;;;;;5.28;3.08;;;;;;;29.31;46.53;100398.09;1769789;78;21129;-56
2021/06/23 08:14:52;;;;;;;7.80;3.33;;;;;;;29.36;46.71;100402.78;1798071;77;21081;-56
2021/06/23 08:17:18;;;;;;;5.83;3.55;;;;;;;29.45;46.54;100402.13;1785830;78;21077;-56
2021/06/23 08:19:44;;;;;;;10.72;3.98;;;;;;;29.53;46.31;100402.22;1767447;78;21112;-56
2021/06/23 08:22:11;;;;;;;6.85;3.70;;;;;;;29.64;46.90;100397.78;1745526;80;21093;-56
2021/06/23 08:24:41;;;;;;;7.60;3.40;;;;;;;29.77;46.81;100392.03;1773107;79;21085;-57
2021/06/23 08:27:08;;;;;;;8.90;3.90;;;;;;;29.90;46.39;100390.02;1753844;80;21176;-57
2021/06/23 08:29:34;;;;;;;5.20;3.60;;;;;;;29.96;46.05;100387.13;1774675;79;22738;-57
2021/06/23 08:32:01;;;;;;;14.75;3.90;;;;;;;30.01;45.78;100393.16;1797091;77;21116;-57
2021/06/23 08:34:28;;;;;;;8.05;3.60;;;;;;;30.06;45.25;100393.22;1798783;77;21572;-56
2021/06/23 08:36:54;;;;;;;11.25;3.92;;;;;;;30.09;45.61;100397.30;1772103;78;21126;-59
2021/06/23 08:39:21;;;;;;;6.58;3.60;;;;;;;30.13;45.66;100401.17;1770766;78;21548;-64
2021/06/23 08:41:47;;;;;;;6.17;3.55;;;;;;;30.18;45.55;100403.95;1766988;79;21127;-58
2021/06/23 08:44:14;;;;;;;6.80;3.70;;;;;;;30.25;45.71;100404.56;1768188;79;21518;-56
2021/06/23 08:46:40;;;;;;;7.10;3.62;;;;;;;30.33;46.36;100404.13;1774961;78;21073;-56
2021/06/23 08:49:07;;;;;;;7.08;3.67;;;;;;;30.42;46.08;100398.28;1803207;77;21097;-56
2021/06/23 08:51:35;;;;;;;7.70;3.95;;;;;;;30.52;45.53;100401.91;1801013;78;21093;-57
2021/06/23 08:54:03;;;;;;;5.55;3.40;;;;;;;30.62;45.63;100401.75;1779849;78;21098;-57
2021/06/23 08:56:30;;;;;;;9.45;4.28;;;;;;;30.67;45.13;100393.66;1786957;78;21082;-55
2021/06/23 08:58:56;;;;;;;6.78;3.47;;;;;;;30.66;45.04;100392.81;1786774;78;21079;-56
2021/06/23 09:01:23;;;;;;;10.60;3.62;;;;;;;30.67;45.32;100406.68;1801995;77;21548;-57
2021/06/23 09:04:08;;;;;;;6.53;3.62;;;;;;;30.70;45.74;100398.58;1795804;77;21759;-56
2021/06/23 09:06:53;;;;;;;8.85;3.75;;;;;;;30.73;45.79;100393.96;1798585;78;21076;-56
2021/06/23 09:09:26;;;;;;;8.70;3.92;;;;;;;30.71;45.90;100393.41;1803915;77;28754;-56
2021/06/23 09:11:57;;;;;;;6.62;3.67;;;;;;;30.72;46.15;100389.63;1753688;79;21479;-56
2021/06/23 09:14:26;;;;;;;7.20;3.52;;;;;;;30.78;46.43;100391.30;1793842;78;21086;-55
2021/06/23 09:17:16;;;;;;;8.75;3.85;;;;;;;30.88;46.77;100398.20;1769010;78;21066;-56
2021/06/23 09:19:50;;;;;;;6.70;3.62;;;;;;;30.98;46.55;100404.27;1789998;78;21949;-57
2021/06/23 09:22:40;;;;;;;7.40;3.83;;;;;;;31.07;46.65;100411.44;1800650;78;21145;-57
2021/06/23 09:25:15;;;;;;;5.65;3.87;;;;;;;31.17;45.44;100406.09;1772021;77;21003;-57
2021/06/23 09:27:54;;;;;;;6.25;3.33;;;;;;;31.30;45.36;100405.64;1774860;78;21340;-56
2021/06/23 09:30:37;;;;;;;10.15;3.72;;;;;;;31.42;45.48;100408.17;1773344;78;21061;-57
2021/06/23 09:33:19;;;;;;;6.08;3.85;;;;;;;31.58;45.57;100411.83;1788780;78;21057;-57
2021/06/23 09:36:00;;;;;;;6.17;3.98;;;;;;;31.71;44.61;100421.96;1781482;78;21524;-57
2021/06/23 09:38:42;;;;;;;8.75;4.00;;;;;;;31.78;44.64;100421.21;1785028;78;21081;-57
2021/06/23 09:41:28;;;;;;;7.17;3.58;;;;;;;31.90;44.69;100421.81;1783296;78;21023;-57
2021/06/23 09:44:07;;;;;;;7.78;4.03;;;;;;;32.02;44.62;100425.12;1781396;78;21057;-57
2021/06/23 09:46:37;;;;;;;7.03;3.70;;;;;;;32.13;43.30;100418.42;1782615;78;21214;-57
2021/06/23 09:49:21;;;;;;;7.72;3.65;;;;;;;32.20;43.33;100410.27;1787594;78;21117;-56
2021/06/23 09:52:11;;;;;;;9.30;3.70;;;;;;;32.31;42.91;100416.59;1805525;77;21140;-56
2021/06/23 09:54:55;;;;;;;9.20;3.50;;;;;;;32.38;42.55;100411.70;1804034;77;21078;-56
2021/06/23 09:57:22;;;;;;;8.30;3.70;;;;;;;32.40;42.28;100414.97;1761049;78;21102;-56
2021/06/23 09:59:56;;;;;;;7.05;3.83;;;;;;;32.45;43.05;100423.70;1784284;78;22910;-56
2021/06/23 10:02:31;;;;;;;7.37;3.25;;;;;;;32.47;41.36;100420.16;1804439;77;21084;-56
2021/06/23 10:04:59;;;;;;;7.55;3.17;;;;;;;32.46;40.71;100416.34;1804076;77;21154;-56
2021/06/23 10:07:48;;;;;;;7.30;3.00;;;;;;;32.46;41.14;100422.59;1785090;78;21054;-56
2021/06/23 10:10:22;;;;;;;10.30;3.60;;;;;;;32.53;42.22;100426.43;1759674;80;21093;-57
2021/06/23 10:12:52;;;;;;;7.10;3.30;;;;;;;32.62;41.53;100418.05;1781773;78;21122;-56
2021/06/23 10:15:19;;;;;;;6.42;3.40;;;;;;;32.69;40.74;100418.60;1775163;78;21110;-57
2021/06/23 10:17:46;;;;;;;9.98;3.35;;;;;;;32.76;41.23;100406.89;1800239;77;21073;-56
2021/06/23 10:20:14;;;;;;;8.23;3.65;;;;;;;32.86;41.77;100414.81;1799772;77;21078;-56
2021/06/23 10:22:43;;;;;;;7.72;3.33;;;;;;;32.95;41.45;100412.66;1796682;77;21142;-56
2021/06/23 10:25:13;;;;;;;6.60;3.22;;;;;;;33.04;41.56;100406.66;1782458;78;21089;-56
2021/06/23 10:27:45;;;;;;;8.63;3.42;;;;;;;33.11;41.74;100403.92;1780293;79;21087;-56
2021/06/23 10:30:14;;;;;;;9.15;3.47;;;;;;;33.20;41.46;100400.68;1778019;78;21079;-56
2021/06/23 10:32:42;;;;;;;6.03;3.00;;;;;;;33.24;40.80;100397.69;1776553;79;21051;-55
2021/06/23 10:35:10;;;;;;;10.65;4.25;;;;;;;33.31;41.12;100400.95;1777897;78;22202;-56
2021/06/23 10:37:39;;;;;;;9.23;3.75;;;;;;;33.36;41.10;100394.68;1783732;79;21166;-56
2021/06/23 10:40:07;;;;;;;11.38;4.20;;;;;;;33.40;41.60;100395.75;1781284;78;21077;-56
2021/06/23 10:42:35;;;;;;;7.72;3.60;;;;;;;33.46;40.91;100400.92;1761729;80;21524;-56
2021/06/23 10:45:03;;;;;;;12.35;4.25;;;;;;;33.49;39.88;100406.39;1774475;79;21105;-56
2021/06/23 10:47:38;;;;;;;14.25;4.05;;;;;;;33.51;39.93;100406.92;1775662;79;21081;-56
2021/06/23 10:50:17;;;;;;;7.03;2.92;;;;;;;33.54;39.75;100416.45;1764812;78;21114;-56
2021/06/23 10:52:46;;;;;;;8.63;3.42;;;;;;;33.53;39.77;100414.83;1794302;79;21125;-55
2021/06/23 10:55:27;;;;;;;9.25;3.17;;;;;;;33.57;39.98;100418.08;1784952;78;21594;-55
2021/06/23 10:57:57;;;;;;;8.15;3.45;;;;;;;33.62;39.50;100415.33;1784686;78;21086;-55
2021/06/23 11:00:27;;;;;;;15.10;4.30;;;;;;;33.68;39.83;100417.55;1800282;77;21572;-55
2021/06/23 11:03:17;;;;;;;13.80;3.62;;;;;;;33.69;40.11;100413.19;1777875;78;21171;-56
2021/06/23 11:05:48;;;;;;;9.00;3.35;;;;;;;33.71;38.70;100414.28;1800523;77;21066;-56
2021/06/23 11:08:33;;;;;;;11.85;3.75;;;;;;;33.67;38.30;100413.98;1752706;78;21046;-57
2021/06/23 11:11:05;;;;;;;14.10;3.55;;;;;;;33.62;38.53;100416.70;1770107;77;22577;-56
2021/06/23 11:13:38;;;;;;;10.85;3.75;;;;;;;33.58;39.11;100412.90;1799616;78;21097;-55
2021/06/23 11:16:06;;;;;;;17.55;4.75;;;;;;;33.64;38.96;100414.53;1777620;78;21549;-55
2021/06/23 11:18:40;;;;;;;11.97;4.37;;;;;;;33.73;39.15;100417.54;1781337;78;21082;-56
2021/06/23 11:21:19;;;;;;;13.25;3.90;;;;;;;33.84;38.86;100420.52;1803054;77;21081;-58
2021/06/23 11:24:00;;;;;;;15.10;4.90;;;;;;;33.94;38.85;100412.01;1801430;77;21109;-55
2021/06/23 11:26:33;;;;;;;10.85;3.95;;;;;;;34.01;38.92;100409.27;1800410;78;21082;-56
2021/06/23 11:29:15;;;;;;;16.37;4.40;;;;;;;34.11;38.89;100406.20;1802758;77;22078;-56
2021/06/23 11:31:51;;;;;;;16.25;4.40;;;;;;;34.19;38.52;100413.27;1770113;79;21165;-57
2021/06/23 11:34:40;;;;;;;;;;;;;;;34.29;38.38;100408.34;1776843;78;21038;-56
2021/06/23 11:37:09;;;;;;;13.30;3.92;;;;;;;34.38;38.72;100408.55;1787705;78;20197;-56
2021/06/23 11:39:36;;;;;;;10.13;3.85;;;;;;;34.42;38.63;100407.72;1773607;78;21073;-56
2021/06/23 11:42:03;;;;;;;15.63;4.33;;;;;;;34.54;37.94;100406.56;1778507;78;21848;-57
2021/06/23 11:44:31;;;;;;;12.35;3.72;;;;;;;34.66;38.31;100403.48;1800349;77;21537;-57
2021/06/23 11:47:01;;;;;;;18.82;4.53;;;;;;;34.80;38.19;100397.66;1772065;79;21070;-57
2021/06/23 11:49:31;;;;;;;18.65;4.08;;;;;;;34.94;38.12;100400.02;1771379;78;21097;-57
2021/06/23 11:51:59;;;;;;;19.82;3.87;;;;;;;35.00;37.54;100399.97;1772361;79;21109;-56
2021/06/23 11:54:25;;;;;;;17.55;4.55;;;;;;;35.02;36.89;100404.59;1800477;78;21772;-57
2021/06/23 11:56:53;;;;;;;16.30;4.47;;;;;;;35.03;37.19;100403.51;1797508;77;21109;-56
2021/06/23 11:59:19;;;;;;;22.80;4.83;;;;;;;35.01;36.69;100398.88;1799723;77;21089;-56
2021/06/23 12:01:49;;;;;;;17.05;5.17;;;;;;;35.04;36.53;100398.31;1800026;77;21335;-57